createdAt,value
2022-11-04T00:01:21.041Z,99385.05
2022-11-04T00:03:48.697Z,99385.00
2022-11-04T00:06:17.183Z,99382.49
2022-11-04T00:08:57.071Z,99377.33
2022-11-04T00:11:43.930Z,99373.38
2022-11-04T00:14:11.995Z,99374.61
2022-11-04T00:16:58.507Z,99371.80
2022-11-04T00:19:26.049Z,99371.94
2022-11-04T00:22:12.278Z,99369.00
2022-11-04T00:24:58.539Z,99361.08
2022-11-04T00:27:44.261Z,99357.73
2022-11-04T00:30:12.673Z,99350.61
2022-11-04T00:32:58.405Z,99341.95
2022-11-04T00:35:25.458Z,99339.08
2022-11-04T00:37:52.859Z,99336.93
2022-11-04T00:40:20.467Z,99336.27
2022-11-04T00:42:47.637Z,99331.54
2022-11-04T00:45:15.100Z,99331.09
2022-11-04T00:47:43.481Z,99320.23
2022-11-04T00:50:10.928Z,99315.81
2022-11-04T00:52:38.077Z,99309.45
2022-11-04T00:55:06.241Z,99303.29
2022-11-04T00:57:33.381Z,99291.29
2022-11-04T01:00:01.681Z,99294.45
2022-11-04T01:02:29.058Z,99285.66
2022-11-04T01:04:56.580Z,99286.73
2022-11-04T01:07:23.928Z,99289.77
2022-11-04T01:09:50.983Z,99288.13
2022-11-04T01:12:18.130Z,99284.35
2022-11-04T01:14:45.547Z,99278.06
2022-11-04T01:17:12.661Z,99275.45
2022-11-04T01:19:39.669Z,99267.79
2022-11-04T01:22:06.750Z,99264.89
2022-11-04T01:24:33.896Z,99269.85
2022-11-04T01:27:01.038Z,99274.02
2022-11-04T01:29:28.281Z,99273.66
2022-11-04T01:31:55.438Z,99271.55
2022-11-04T01:34:22.800Z,99268.73
2022-11-04T01:36:50.156Z,99263.36
2022-11-04T01:39:17.389Z,99258.70
2022-11-04T01:41:44.636Z,99259.67
2022-11-04T01:44:43.144Z,99251.96
2022-11-04T01:47:23.375Z,99245.77
2022-11-04T01:49:58.715Z,99239.06
2022-11-04T01:52:30.799Z,99237.41
2022-11-04T01:55:01.383Z,99238.15
2022-11-04T01:57:37.791Z,99236.23
2022-11-04T02:00:07.097Z,99239.05
2022-11-04T02:03:05.414Z,99233.41
2022-11-04T02:05:33.239Z,99234.90
2022-11-04T02:08:02.678Z,99229.83
2022-11-04T02:10:31.638Z,99228.40
2022-11-04T02:13:01.677Z,99227.48
2022-11-04T02:15:37.819Z,99228.42
2022-11-04T02:18:07.818Z,99225.39
2022-11-04T02:20:55.358Z,99221.73
2022-11-04T02:23:48.911Z,99215.42
2022-11-04T02:26:34.184Z,99209.54
2022-11-04T02:29:31.358Z,99209.91
2022-11-04T02:32:13.037Z,99208.67
2022-11-04T02:35:03.119Z,99209.40
2022-11-04T02:38:11.249Z,99207.17
2022-11-04T02:40:53.860Z,99210.79
2022-11-04T02:43:20.982Z,99207.14
2022-11-04T02:45:51.841Z,99200.35
2022-11-04T02:48:24.603Z,99195.92
2022-11-04T02:51:00.612Z,99193.82
2022-11-04T02:53:32.548Z,99196.65
2022-11-04T02:56:01.098Z,99198.21
2022-11-04T02:58:33.166Z,99200.23
2022-11-04T03:01:02.029Z,99197.71
2022-11-04T03:03:36.383Z,99194.65
2022-11-04T03:06:05.498Z,99194.63
2022-11-04T03:08:39.086Z,99190.01
2022-11-04T03:11:12.970Z,99187.59
2022-11-04T03:14:04.192Z,99190.89
2022-11-04T03:16:46.602Z,99188.54
2022-11-04T03:19:17.828Z,99184.78
2022-11-04T03:21:57.819Z,99182.80
2022-11-04T03:24:25.676Z,99183.61
2022-11-04T03:27:31.222Z,99182.11
2022-11-04T03:30:25.395Z,99186.70
2022-11-04T03:33:11.987Z,99185.52
2022-11-04T03:35:39.378Z,99180.93
2022-11-04T03:38:06.723Z,99180.70
2022-11-04T03:40:35.118Z,99175.73
2022-11-04T03:43:17.008Z,99171.30
2022-11-04T03:45:44.359Z,99171.08
2022-11-04T03:48:12.616Z,99170.48
2022-11-04T03:50:44.846Z,99163.81
2022-11-04T03:53:14.158Z,99162.31
2022-11-04T03:55:51.697Z,99161.79
2022-11-04T03:58:34.188Z,99164.13
2022-11-04T04:01:30.928Z,99164.52
2022-11-04T04:04:31.676Z,99158.95
2022-11-04T04:07:03.199Z,99160.91
2022-11-04T04:09:39.903Z,99160.80
2022-11-04T04:12:46.077Z,99160.52
2022-11-04T04:15:23.532Z,99157.88
2022-11-04T04:18:06.733Z,99155.92
2022-11-04T04:20:36.568Z,99152.08
2022-11-04T04:23:27.005Z,99155.27
2022-11-04T04:26:14.618Z,99151.55
2022-11-04T04:28:43.208Z,99149.41
2022-11-04T04:31:12.298Z,99149.59
2022-11-04T04:33:39.758Z,99147.41
2022-11-04T04:36:09.977Z,99145.60
2022-11-04T04:38:59.846Z,99147.80
2022-11-04T04:41:48.620Z,99147.20
2022-11-04T04:44:41.159Z,99148.17
2022-11-04T04:47:10.165Z,99143.01
2022-11-04T04:49:53.179Z,99139.33
2022-11-04T04:52:21.525Z,99138.20
2022-11-04T04:54:48.797Z,99140.27
2022-11-04T04:57:16.361Z,99138.77
2022-11-04T04:59:43.719Z,99135.69
2022-11-04T05:02:11.521Z,99134.84
2022-11-04T05:04:38.939Z,99136.17
2022-11-04T05:07:08.339Z,99135.59
2022-11-04T05:09:35.699Z,99136.90
2022-11-04T05:12:03.180Z,99136.42
2022-11-04T05:14:30.914Z,99130.63
2022-11-04T05:16:58.365Z,99125.46
2022-11-04T05:19:25.738Z,99120.35
2022-11-04T05:21:53.498Z,99117.02
2022-11-04T05:24:20.735Z,99120.78
2022-11-04T05:26:47.997Z,99112.27
2022-11-04T05:31:47.318Z,99114.30
2022-11-04T05:34:14.987Z,99113.05
2022-11-04T05:36:42.647Z,99112.41
2022-11-04T05:39:12.930Z,99108.63
2022-11-04T05:41:40.298Z,99103.51
2022-11-04T05:44:10.006Z,99097.63
2022-11-04T05:46:37.258Z,99097.27
2022-11-04T05:49:05.665Z,99094.53
2022-11-04T05:51:33.317Z,99094.25
2022-11-04T05:54:00.979Z,99094.06
2022-11-04T05:56:28.158Z,99094.69
2022-11-04T05:58:55.799Z,99097.73
2022-11-04T06:01:32.342Z,99095.52
2022-11-04T06:04:01.767Z,99098.80
2022-11-04T06:06:37.145Z,99098.34
2022-11-04T06:09:05.729Z,99102.02
2022-11-04T06:11:34.478Z,99105.48
2022-11-04T06:14:02.334Z,99107.33
2022-11-04T06:16:29.820Z,99108.27
2022-11-04T06:19:01.468Z,99108.20
2022-11-04T06:21:34.237Z,99109.98
2022-11-04T06:24:02.638Z,99113.41
2022-11-04T06:26:31.183Z,99114.95
2022-11-04T06:28:58.332Z,99119.05
2022-11-04T06:31:25.491Z,99117.30
2022-11-04T06:33:52.864Z,99120.99
2022-11-04T06:36:20.417Z,99123.10
2022-11-04T06:38:48.064Z,99114.57
2022-11-04T06:41:17.602Z,99108.96
2022-11-04T06:43:45.019Z,99112.86
2022-11-04T06:46:30.034Z,99114.60
2022-11-04T06:48:57.756Z,99118.50
2022-11-04T06:51:25.925Z,99112.61
2022-11-04T06:53:53.280Z,99118.09
2022-11-04T06:56:20.437Z,99121.54
2022-11-04T06:58:51.572Z,99124.67
2022-11-04T07:01:22.011Z,99123.87
2022-11-04T07:03:51.698Z,99128.73
2022-11-04T07:06:20.093Z,99127.23
2022-11-04T07:08:51.238Z,99126.55
2022-11-04T07:11:21.354Z,99123.47
2022-11-04T07:13:50.000Z,99123.26
2022-11-04T07:16:17.690Z,99132.16
2022-11-04T07:18:45.158Z,99140.21
2022-11-04T07:21:12.928Z,99145.91
2022-11-04T07:23:39.995Z,99144.67
2022-11-04T07:26:09.973Z,99147.01
2022-11-04T07:28:37.341Z,99147.77
2022-11-04T07:31:07.060Z,99148.71
2022-11-04T07:33:35.212Z,99156.27
2022-11-04T07:36:07.200Z,99156.59
2022-11-04T07:38:34.639Z,99155.14
2022-11-04T07:41:03.010Z,99150.08
2022-11-04T07:43:31.045Z,99156.73
2022-11-04T07:46:02.419Z,99162.23
2022-11-04T07:48:30.198Z,99163.42
2022-11-04T07:51:01.334Z,99158.04
2022-11-04T07:53:30.239Z,99156.14
2022-11-04T07:55:58.502Z,99156.48
2022-11-04T07:58:26.279Z,99159.48
2022-11-04T08:00:59.882Z,99164.56
2022-11-04T08:03:27.624Z,99170.48
2022-11-04T08:06:02.299Z,99170.92
2022-11-04T08:08:30.177Z,99169.16
2022-11-04T08:11:01.063Z,99165.20
2022-11-04T08:13:29.755Z,99168.95
2022-11-04T08:15:57.914Z,99165.52
2022-11-04T08:18:25.060Z,99166.55
2022-11-04T08:20:53.238Z,99163.71
2022-11-04T08:23:23.163Z,99158.30
2022-11-04T08:25:51.922Z,99152.60
2022-11-04T08:28:20.260Z,99145.42
2022-11-04T08:31:03.346Z,99145.85
2022-11-04T08:33:33.102Z,99149.92
2022-11-04T08:36:06.039Z,99147.80
2022-11-04T08:38:34.752Z,99145.00
2022-11-04T08:41:04.132Z,99138.64
2022-11-04T08:43:31.688Z,99132.85
2022-11-04T08:45:58.846Z,99130.02
2022-11-04T08:48:26.399Z,99132.25
2022-11-04T08:50:55.759Z,99133.55
2022-11-04T08:53:23.471Z,99135.25
2022-11-04T08:55:50.815Z,99137.17
2022-11-04T08:58:19.095Z,99135.41
2022-11-04T09:00:46.348Z,99131.45
2022-11-04T09:03:14.883Z,99132.01
2022-11-04T09:05:46.178Z,99132.80
2022-11-04T09:08:14.663Z,99128.77
2022-11-04T09:10:46.351Z,99127.61
2022-11-04T09:13:15.968Z,99125.83
2022-11-04T09:15:43.497Z,99128.83
2022-11-04T09:18:11.743Z,99121.32
2022-11-04T09:20:39.113Z,99123.73
2022-11-04T09:23:07.110Z,99125.09
2022-11-04T09:25:35.924Z,99124.20
2022-11-04T09:28:03.533Z,99129.69
2022-11-04T09:30:31.095Z,99128.39
2022-11-04T09:32:58.777Z,99128.60
2022-11-04T09:35:27.949Z,99121.48
2022-11-04T09:37:55.401Z,99119.51
2022-11-04T09:40:25.225Z,99123.88
2022-11-04T09:43:14.694Z,99130.91
2022-11-04T09:45:43.094Z,99133.39
2022-11-04T09:48:33.150Z,99132.02
2022-11-04T09:51:03.049Z,99130.69
2022-11-04T09:53:33.087Z,99129.92
2022-11-04T09:56:31.049Z,99127.91
2022-11-04T09:58:58.524Z,99128.77
2022-11-04T10:01:38.639Z,99121.95
2022-11-04T10:04:38.590Z,99114.88
2022-11-04T10:07:21.239Z,99112.42
2022-11-04T10:10:23.365Z,99111.49
2022-11-04T10:13:02.703Z,99106.67
2022-11-04T10:15:52.076Z,99109.62
2022-11-04T10:18:48.713Z,99106.77
2022-11-04T10:21:46.884Z,99101.39
2022-11-04T10:24:21.181Z,99097.88
2022-11-04T10:27:00.773Z,99098.44
2022-11-04T10:29:38.785Z,99104.93
2022-11-04T10:32:22.042Z,99108.88
2022-11-04T10:35:01.726Z,99113.01
2022-11-04T10:37:28.874Z,99116.04
2022-11-04T10:40:22.232Z,99118.96
2022-11-04T10:42:50.502Z,99119.95
2022-11-04T10:45:20.852Z,99120.94
2022-11-04T10:47:59.514Z,99121.87
2022-11-04T10:50:55.677Z,99117.84
2022-11-04T10:53:36.670Z,99113.38
2022-11-04T10:56:07.338Z,99107.23
2022-11-04T10:58:43.488Z,99109.73
2022-11-04T11:01:26.432Z,99106.19
2022-11-04T11:03:54.742Z,99100.09
2022-11-04T11:06:28.826Z,99101.41
2022-11-04T11:09:20.169Z,99101.73
2022-11-04T11:11:49.895Z,99095.76
2022-11-04T11:14:29.527Z,99087.80
2022-11-04T11:16:58.521Z,99083.92
2022-11-04T11:19:26.381Z,99071.48
2022-11-04T11:21:57.836Z,99071.13
2022-11-04T11:24:27.242Z,99074.06
2022-11-04T11:27:00.026Z,99068.31
2022-11-04T11:29:29.247Z,99067.27
2022-11-04T11:31:57.558Z,99072.96
2022-11-04T11:34:27.101Z,99076.70
2022-11-04T11:36:58.526Z,99074.43
2022-11-04T11:39:33.076Z,99076.84
2022-11-04T11:42:02.908Z,99073.13
2022-11-04T11:44:44.741Z,99070.77
2022-11-04T11:47:23.084Z,99074.02
2022-11-04T11:50:07.448Z,99069.30
2022-11-04T11:52:38.528Z,99066.16
2022-11-04T11:55:29.673Z,99064.42
2022-11-04T12:01:24.014Z,99053.63
2022-11-04T12:09:51.092Z,99057.74
2022-11-04T12:12:24.077Z,99061.58
2022-11-04T12:15:00.034Z,99065.27
2022-11-04T12:17:33.270Z,99067.59
2022-11-04T12:20:11.699Z,99065.42
2022-11-04T12:23:01.010Z,99064.86
2022-11-04T12:25:49.874Z,99065.96
2022-11-04T12:28:22.669Z,99068.21
2022-11-04T12:31:05.068Z,99067.87
2022-11-04T12:33:38.453Z,99065.24
2022-11-04T12:36:12.670Z,99068.05
2022-11-04T12:39:13.507Z,99066.19
2022-11-04T12:44:54.808Z,99065.18
2022-11-04T12:47:27.999Z,99065.08
2022-11-04T12:49:58.940Z,99068.95
2022-11-04T12:53:01.657Z,99067.63
2022-11-04T12:55:37.243Z,99062.12
2022-11-04T12:58:17.440Z,99056.16
2022-11-04T13:00:48.605Z,99053.32
2022-11-04T13:03:21.825Z,99053.15
2022-11-04T13:06:01.911Z,99053.12
2022-11-04T13:08:29.681Z,99050.33
2022-11-04T13:11:02.296Z,99055.46
2022-11-04T13:13:34.563Z,99059.83
2022-11-04T13:16:06.971Z,99065.80
2022-11-04T13:18:38.454Z,99060.27
2022-11-04T13:21:09.847Z,99061.16
2022-11-04T13:23:42.436Z,99066.98
2022-11-04T13:26:15.643Z,99067.90
2022-11-04T13:28:44.455Z,99074.33
2022-11-04T13:31:15.287Z,99065.30
2022-11-04T13:33:59.855Z,99062.41
2022-11-04T13:36:46.463Z,99061.23
2022-11-04T13:39:13.722Z,99065.34
2022-11-04T13:42:13.882Z,99059.73
2022-11-04T13:44:44.773Z,99061.94
2022-11-04T13:47:39.156Z,99058.24
2022-11-04T13:50:07.397Z,99059.33
2022-11-04T13:52:36.618Z,99059.95
2022-11-04T13:55:06.490Z,99060.63
2022-11-04T13:57:59.808Z,99056.66
2022-11-04T14:00:28.943Z,99057.88
2022-11-04T14:03:01.933Z,99054.11
2022-11-04T14:05:37.427Z,99050.89
2022-11-04T14:08:04.579Z,99047.88
2022-11-04T14:10:55.095Z,99052.68
2022-11-04T14:13:31.238Z,99057.95
2022-11-04T14:16:24.499Z,99053.86
2022-11-04T14:18:53.701Z,99048.84
2022-11-04T14:21:23.817Z,99045.95
2022-11-04T14:23:56.798Z,99048.58
2022-11-04T14:26:50.900Z,99049.44
2022-11-04T14:29:22.620Z,99056.58
2022-11-04T14:31:58.600Z,99050.35
2022-11-04T14:34:35.047Z,99051.95
2022-11-04T14:37:06.287Z,99053.59
2022-11-04T14:39:38.494Z,99048.61
2022-11-04T14:42:07.224Z,99050.94
2022-11-04T14:44:50.079Z,99051.16
2022-11-04T14:47:37.648Z,99054.42
2022-11-04T14:50:08.863Z,99060.84
2022-11-04T14:52:46.654Z,99067.92
2022-11-04T14:55:16.414Z,99066.34
2022-11-04T14:57:45.652Z,99062.45
2022-11-04T15:00:35.857Z,99066.86
2022-11-04T15:04:09.628Z,99072.66
2022-11-04T15:06:11.727Z,99077.70
2022-11-04T15:08:41.651Z,99072.84
2022-11-04T15:11:16.852Z,99067.73
2022-11-04T15:13:46.078Z,99067.54
2022-11-04T15:16:26.141Z,99067.94
2022-11-04T15:18:58.633Z,99068.61
2022-11-04T15:21:27.324Z,99068.30
2022-11-04T15:23:55.874Z,99069.75
2022-11-04T15:26:31.157Z,99068.98
2022-11-04T15:29:03.935Z,99068.39
2022-11-04T15:31:35.258Z,99065.95
2022-11-04T15:34:10.271Z,99067.82
2022-11-04T15:36:42.754Z,99067.31
2022-11-04T15:39:27.572Z,99069.17
2022-11-04T15:42:19.959Z,99068.92
2022-11-04T15:44:51.506Z,99065.25
2022-11-04T15:47:18.971Z,99065.67
2022-11-04T15:49:51.919Z,99060.47
2022-11-04T15:52:24.533Z,99054.54
2022-11-04T15:55:02.475Z,99057.36
2022-11-04T15:57:34.903Z,99062.95
2022-11-04T16:00:24.898Z,99060.25
2022-11-04T16:02:55.621Z,99056.59
2022-11-04T16:05:28.930Z,99057.29
2022-11-04T16:08:14.381Z,99054.26
2022-11-04T16:10:42.408Z,99060.42
2022-11-04T16:13:19.035Z,99061.92
2022-11-04T16:15:52.225Z,99059.27
2022-11-04T16:18:24.191Z,99061.34
2022-11-04T16:20:53.550Z,99068.46
2022-11-04T16:23:25.552Z,99075.02
2022-11-04T16:26:02.407Z,99069.94
2022-11-04T16:28:31.114Z,99066.61
2022-11-04T16:31:04.821Z,99058.11
2022-11-04T16:33:32.591Z,99052.58
2022-11-04T16:36:00.816Z,99054.92
2022-11-04T16:38:28.210Z,99054.54
2022-11-04T16:41:00.092Z,99053.65
2022-11-04T16:43:28.969Z,99053.45
2022-11-04T16:45:57.459Z,99048.38
2022-11-04T16:48:25.209Z,99051.54
2022-11-04T16:50:52.583Z,99052.18
2022-11-04T16:53:20.850Z,99056.77
2022-11-04T16:55:48.827Z,99058.49
2022-11-04T16:58:19.645Z,99058.20
2022-11-04T17:00:47.978Z,99059.15
2022-11-04T17:03:23.484Z,99054.80
2022-11-04T17:05:55.068Z,99050.47
2022-11-04T17:08:26.266Z,99045.02
2022-11-04T17:10:54.752Z,99045.96
2022-11-04T17:13:22.618Z,99051.89
2022-11-04T17:15:50.070Z,99054.57
2022-11-04T17:18:18.593Z,99048.14
2022-11-04T17:20:49.717Z,99041.46
2022-11-04T17:23:17.849Z,99043.96
2022-11-04T17:25:46.322Z,99041.24
2022-11-04T17:28:15.337Z,99044.41
2022-11-04T17:30:44.658Z,99044.30
2022-11-04T17:33:17.097Z,99046.84
2022-11-04T17:35:46.326Z,99042.59
2022-11-04T17:38:14.694Z,99042.85
2022-11-04T17:41:18.396Z,99039.15
2022-11-04T17:44:02.076Z,99039.84
2022-11-04T17:46:38.404Z,99043.55
2022-11-04T17:49:10.374Z,99041.66
2022-11-04T17:51:37.921Z,99035.38
2022-11-04T17:54:05.693Z,99036.00
2022-11-04T17:56:33.450Z,99037.33
2022-11-04T17:59:04.488Z,99033.57
2022-11-04T18:01:33.492Z,99030.45
2022-11-04T18:04:01.560Z,99030.89
2022-11-04T18:06:32.183Z,99031.01
2022-11-04T18:09:00.251Z,99027.77
2022-11-04T18:11:48.392Z,99028.00
2022-11-04T18:14:17.345Z,99025.36
2022-11-04T18:16:47.300Z,99024.63
2022-11-04T18:19:15.488Z,99020.40
2022-11-04T18:21:42.848Z,99014.62
2022-11-04T18:24:11.267Z,99007.23
2022-11-04T18:26:39.490Z,98999.31
2022-11-04T18:29:07.975Z,98997.46
2022-11-04T18:31:46.195Z,99002.17
2022-11-04T18:34:19.728Z,99010.10
2022-11-04T18:36:48.855Z,99016.36
2022-11-04T18:39:18.209Z,99021.09
2022-11-04T18:41:46.977Z,99025.66
2022-11-04T18:44:16.886Z,99034.21
2022-11-04T18:46:44.328Z,99038.88
2022-11-04T18:49:13.573Z,99041.84
2022-11-04T18:51:42.019Z,99043.66
2022-11-04T18:54:12.807Z,99049.14
2022-11-04T18:56:40.810Z,99050.55
2022-11-04T18:59:13.613Z,99046.17
2022-11-04T19:01:43.292Z,99049.19
2022-11-04T19:04:11.594Z,99043.19
2022-11-04T19:06:43.183Z,99040.65
2022-11-04T19:12:19.116Z,99044.54
2022-11-04T19:14:47.080Z,99043.66
2022-11-04T19:17:14.326Z,99048.04
2022-11-04T19:19:42.203Z,99045.55
2022-11-04T19:22:11.558Z,99044.52
2022-11-04T19:24:40.182Z,99047.98
2022-11-04T19:27:08.566Z,99039.73
2022-11-04T19:29:36.636Z,99040.41
2022-11-04T19:32:06.276Z,99047.47
2022-11-04T19:34:38.302Z,99053.83
2022-11-04T19:37:06.177Z,99059.90
2022-11-04T19:39:35.129Z,99057.59
2022-11-04T19:42:21.880Z,99054.64
2022-11-04T19:44:49.997Z,99055.54
2022-11-04T19:47:17.939Z,99058.88
2022-11-04T19:49:45.991Z,99053.10
2022-11-04T19:52:14.063Z,99050.09
2022-11-04T19:54:41.652Z,99054.23
2022-11-04T19:57:09.600Z,99057.72
2022-11-04T19:59:37.780Z,99061.52
2022-11-04T20:02:07.012Z,99061.58
2022-11-04T20:04:35.057Z,99063.17
2022-11-04T20:07:02.997Z,99070.16
2022-11-04T20:09:30.679Z,99072.45
2022-11-04T20:12:17.900Z,99072.98
2022-11-04T20:14:45.955Z,99076.49
2022-11-04T20:17:14.028Z,99070.84
2022-11-04T20:19:42.200Z,99079.79
2022-11-04T20:22:11.513Z,99071.47
2022-11-04T20:24:39.580Z,99070.40
2022-11-04T20:27:07.643Z,99071.50
2022-11-04T20:29:36.041Z,99076.89
2022-11-04T20:32:04.527Z,99081.86
2022-11-04T20:34:34.916Z,99086.61
2022-11-04T20:37:03.504Z,99084.80
2022-11-04T20:39:31.984Z,99084.77
2022-11-04T20:41:59.240Z,99079.20
2022-11-04T20:44:26.555Z,99084.14
2022-11-04T20:46:55.757Z,99086.16
2022-11-04T20:49:23.866Z,99086.73
2022-11-04T20:51:55.595Z,99086.39
2022-11-04T20:54:23.901Z,99089.46
2022-11-04T20:56:51.464Z,99091.64
2022-11-04T20:59:19.518Z,99084.81
2022-11-04T21:01:49.301Z,99084.85
2022-11-04T21:04:19.558Z,99081.30
2022-11-04T21:06:51.356Z,99074.84
2022-11-04T21:09:20.472Z,99084.70
2022-11-04T21:11:48.445Z,99090.23
2022-11-04T21:14:17.994Z,99087.73
2022-11-04T21:16:45.993Z,99089.07
2022-11-04T21:19:15.560Z,99085.54
2022-11-04T21:21:44.644Z,99089.09
2022-11-04T21:24:14.509Z,99088.77
2022-11-04T21:26:43.432Z,99091.41
2022-11-04T21:29:18.196Z,99095.33
2022-11-04T21:31:47.717Z,99099.33
2022-11-04T21:34:16.070Z,99098.58
2022-11-04T21:36:43.840Z,99100.12
2022-11-04T21:39:12.086Z,99105.02
2022-11-04T21:41:39.552Z,99099.48
2022-11-04T21:44:12.138Z,99098.26
2022-11-04T21:46:39.901Z,99096.67
2022-11-04T21:49:08.079Z,99095.45
2022-11-04T21:51:35.943Z,99095.30
2022-11-04T21:54:07.174Z,99094.60
2022-11-04T21:56:34.950Z,99097.09
2022-11-04T21:59:02.639Z,99097.77
2022-11-04T22:01:31.324Z,99098.19
2022-11-04T22:04:01.215Z,99096.25
2022-11-04T22:06:35.540Z,99087.34
2022-11-04T22:09:05.038Z,99087.27
2022-11-04T22:11:33.538Z,99091.95
2022-11-04T22:14:04.198Z,99098.02
2022-11-04T22:16:35.210Z,99101.14
2022-11-04T22:19:04.766Z,99099.07
2022-11-04T22:21:33.200Z,99103.00
2022-11-04T22:24:01.360Z,99102.62
2022-11-04T22:26:31.775Z,99102.59
2022-11-04T22:29:00.050Z,99097.10
2022-11-04T22:31:30.117Z,99100.47
2022-11-04T22:33:58.130Z,99098.73
2022-11-04T22:36:26.377Z,99105.40
2022-11-04T22:38:53.793Z,99109.19
2022-11-04T22:41:23.155Z,99108.83
2022-11-04T22:43:50.216Z,99115.07
2022-11-04T22:46:35.611Z,99117.89
2022-11-04T22:49:02.741Z,99128.15
2022-11-04T22:51:31.752Z,99129.94
2022-11-04T22:54:04.519Z,99136.83
2022-11-04T22:56:32.090Z,99138.93
2022-11-04T22:59:00.718Z,99141.54
2022-11-04T23:01:28.190Z,99144.92
2022-11-04T23:03:55.576Z,99145.52
2022-11-04T23:06:22.849Z,99141.55
2022-11-04T23:08:52.145Z,99146.00
2022-11-04T23:11:45.278Z,99141.28
2022-11-04T23:14:32.634Z,99142.67
2022-11-04T23:17:19.110Z,99143.30
2022-11-04T23:19:46.360Z,99147.48
2022-11-04T23:22:32.146Z,99153.73
2022-11-04T23:25:11.489Z,99161.00
2022-11-04T23:28:05.782Z,99165.09
2022-11-04T23:30:43.074Z,99166.21
2022-11-04T23:33:12.406Z,99167.73
2022-11-04T23:36:04.780Z,99175.50
2022-11-04T23:38:32.990Z,99173.77
2022-11-04T23:41:22.041Z,99171.54
2022-11-04T23:43:49.393Z,99171.30
2022-11-04T23:46:42.330Z,99173.17
2022-11-04T23:49:30.796Z,99176.41
2022-11-04T23:52:17.011Z,99189.02
2022-11-04T23:55:03.199Z,99193.16
2022-11-04T23:57:49.093Z,99200.64
